Time;durP1;ratioP1;P1;durP2;ratioP2;P2;SDS_P1;SDS_P2;PMS_P1;PMS_P2;Temp;Humidity;BMP_temperature;BMP_pressure;BME280_temperature;BME280_humidity;BME280_pressure;Samples;Min_cycle;Max_cycle;Signal;HPM_P1;HPM_P2
2024/02/06 00:00:04;;;;;;;0.15;0.15;;;;;;;12.13;66.78;101486.69;5096119;28;20039;-79
2024/02/06 00:02:30;;;;;;;2.15;2.05;;;;;;;12.21;66.42;101490.09;5095938;28;20376;-79
2024/02/06 00:04:56;;;;;;;1.27;1.27;;;;;;;12.22;66.36;101488.31;5093460;28;20024;-79
2024/02/06 00:07:22;;;;;;;0.30;0.30;;;;;;;12.28;65.95;101478.44;5096307;28;20032;-79
2024/02/06 00:09:49;;;;;;;0.10;0.10;;;;;;;12.07;66.78;101481.47;5099757;28;20028;-79
2024/02/06 00:12:15;;;;;;;0.10;0.10;;;;;;;12.25;66.48;101475.84;5093545;28;20028;-79
2024/02/06 00:14:41;;;;;;;2.30;2.20;;;;;;;12.10;66.95;101521.25;5096153;28;20028;-79
2024/02/06 00:17:07;;;;;;;0.35;0.35;;;;;;;12.23;66.43;101477.66;5094203;28;20052;-79
2024/02/06 00:19:33;;;;;;;0.10;0.10;;;;;;;12.29;66.10;101480.19;5092007;28;20028;-79
2024/02/06 00:21:59;;;;;;;0.15;0.15;;;;;;;12.34;65.43;101474.81;5100664;28;20072;-79
2024/02/06 00:24:26;;;;;;;1.55;1.45;;;;;;;12.26;65.87;101474.94;5096732;28;20052;-78
2024/02/06 00:26:52;;;;;;;0.20;0.20;;;;;;;12.27;65.42;101497.97;5098296;28;20663;-78
2024/02/06 00:29:18;;;;;;;0.20;0.20;;;;;;;12.24;66.02;101468.78;5093253;28;20039;-79
2024/02/06 00:31:44;;;;;;;1.48;1.45;;;;;;;12.16;65.61;101468.00;5095767;28;20032;-79
2024/02/06 00:34:11;;;;;;;0.20;0.20;;;;;;;12.25;65.56;101483.81;5093634;28;20105;-79
2024/02/06 00:36:37;;;;;;;0.10;0.10;;;;;;;12.36;65.04;101461.50;5097345;28;20043;-78
2024/02/06 00:39:04;;;;;;;0.10;0.10;;;;;;;12.40;65.13;101460.53;5096149;28;20106;-79
2024/02/06 00:41:30;;;;;;;0.10;0.10;;;;;;;12.38;65.73;101457.03;5090978;28;20033;-79
2024/02/06 00:43:56;;;;;;;0.10;0.10;;;;;;;12.36;65.25;101458.84;5084216;28;20024;-80
2024/02/06 00:46:22;;;;;;;0.10;0.10;;;;;;;12.21;66.32;101457.31;5083513;28;20106;-77
2024/02/06 00:48:48;;;;;;;0.40;0.40;;;;;;;12.35;65.65;101457.06;5088685;28;20031;-77
2024/02/06 00:51:14;;;;;;;0.10;0.10;;;;;;;12.35;65.83;101465.06;5088291;28;20062;-79
2024/02/06 00:53:41;;;;;;;18.30;3.70;;;;;;;12.33;65.98;101449.13;5088826;28;20059;-78
2024/02/06 00:56:07;;;;;;;0.20;0.20;;;;;;;12.27;65.69;101434.19;5097083;28;20028;-79
2024/02/06 00:58:34;;;;;;;0.10;0.10;;;;;;;12.35;65.52;101442.03;5090971;28;20029;-79
2024/02/06 01:01:01;;;;;;;0.63;0.63;;;;;;;12.30;65.96;101428.81;5101856;28;20032;-80
2024/02/06 01:03:27;;;;;;;0.10;0.10;;;;;;;12.49;65.25;101428.47;5100631;28;20028;-80
2024/02/06 01:05:53;;;;;;;0.30;0.30;;;;;;;12.37;65.19;101423.38;5093797;28;20024;-79
2024/02/06 01:08:20;;;;;;;0.10;0.10;;;;;;;12.28;65.41;101413.81;5102195;28;20023;-80
2024/02/06 01:10:46;;;;;;;0.10;0.10;;;;;;;12.37;65.77;101412.75;5102179;28;20051;-80
2024/02/06 01:13:13;;;;;;;0.10;0.10;;;;;;;12.32;65.24;101430.56;5102124;28;20028;-79
2024/02/06 01:15:39;;;;;;;1.25;1.25;;;;;;;12.45;65.14;101409.06;5098881;28;20396;-80
2024/02/06 01:18:05;;;;;;;0.20;0.20;;;;;;;12.40;65.26;101418.00;5093508;28;20050;-80
2024/02/06 01:20:31;;;;;;;0.70;0.57;;;;;;;12.32;65.47;101388.91;5094651;28;20032;-80
2024/02/06 01:22:58;;;;;;;0.10;0.10;;;;;;;12.27;65.40;101412.94;5102273;28;20028;-80
2024/02/06 01:25:29;;;;;;;0.10;0.10;;;;;;;12.26;64.97;101420.91;5100197;28;20043;-79
2024/02/06 01:27:55;;;;;;;0.22;0.22;;;;;;;12.30;64.78;101388.97;5097764;28;20035;-79
2024/02/06 01:30:21;;;;;;;0.10;0.10;;;;;;;12.40;64.49;101386.13;5102495;28;20081;-79
2024/02/06 01:32:47;;;;;;;1.75;1.65;;;;;;;12.32;65.20;101393.38;5098461;28;20060;-79
2024/02/06 01:35:14;;;;;;;0.10;0.10;;;;;;;12.42;64.81;101373.69;5102947;28;20024;-79
2024/02/06 01:37:40;;;;;;;0.10;0.10;;;;;;;12.35;65.09;101386.22;5102881;28;20039;-80
2024/02/06 01:40:07;;;;;;;0.10;0.10;;;;;;;12.39;64.82;101368.44;5101570;28;20043;-80
2024/02/06 01:42:33;;;;;;;0.73;0.73;;;;;;;12.44;64.85;101387.84;5102038;28;20028;-79
2024/02/06 01:45:00;;;;;;;0.10;0.10;;;;;;;12.36;65.60;101387.09;5099336;28;20032;-79
2024/02/06 01:47:27;;;;;;;0.10;0.10;;;;;;;12.35;65.32;101372.03;5103750;28;20565;-79
2024/02/06 01:49:56;;;;;;;0.20;0.20;;;;;;;12.40;65.02;101378.13;5097654;28;20039;-79
2024/02/06 01:52:23;;;;;;;0.10;0.10;;;;;;;12.42;65.35;101379.91;5098339;28;20111;-80
2024/02/06 01:54:49;;;;;;;0.32;0.32;;;;;;;12.55;64.68;101396.47;5088188;28;20039;-79
2024/02/06 01:57:15;;;;;;;0.10;0.10;;;;;;;12.39;65.11;101379.06;5092548;28;20029;-78
2024/02/06 01:59:42;;;;;;;0.10;0.10;;;;;;;12.51;65.20;101368.22;5094965;28;20032;-78
2024/02/06 02:02:08;;;;;;;0.28;0.28;;;;;;;12.56;64.99;101384.03;5095567;28;20533;-78
2024/02/06 02:04:35;;;;;;;3.20;3.00;;;;;;;12.45;65.27;101378.97;5094446;28;20044;-78
2024/02/06 02:07:01;;;;;;;0.10;0.10;;;;;;;12.26;65.97;101381.06;5094167;28;20114;-78
2024/02/06 02:09:27;;;;;;;0.20;0.20;;;;;;;12.35;66.44;101377.34;5101412;28;20032;-79
2024/02/06 02:11:54;;;;;;;0.40;0.40;;;;;;;12.39;65.99;101373.75;5095941;28;20024;-80
2024/02/06 02:14:21;;;;;;;0.22;0.22;;;;;;;12.40;65.77;101363.09;5092353;28;20020;-80
2024/02/06 02:16:47;;;;;;;1.60;1.30;;;;;;;12.50;65.68;101368.22;5101299;28;20028;-80
2024/02/06 02:19:14;;;;;;;0.13;0.13;;;;;;;12.60;65.53;101362.69;5098539;28;20066;-80
2024/02/06 02:21:40;;;;;;;1.27;1.00;;;;;;;12.46;65.54;101367.41;5100993;28;20036;-79
2024/02/06 02:24:07;;;;;;;1.27;1.27;;;;;;;12.46;65.93;101354.09;5097732;28;20463;-79
2024/02/06 02:26:35;;;;;;;1.60;1.50;;;;;;;12.56;65.85;101345.06;5088742;28;20039;-80
2024/02/06 02:29:02;;;;;;;0.10;0.10;;;;;;;12.42;66.00;101341.78;5094963;28;20031;-80
2024/02/06 02:31:31;;;;;;;2.00;1.88;;;;;;;12.54;65.94;101352.19;5091366;28;20036;-79
2024/02/06 02:33:57;;;;;;;0.50;0.50;;;;;;;12.48;66.18;101341.69;5098477;28;20497;-79
2024/02/06 02:36:24;;;;;;;0.10;0.10;;;;;;;12.43;66.37;101338.25;5099321;28;20028;-80
2024/02/06 02:38:50;;;;;;;0.20;0.20;;;;;;;12.52;66.55;101326.53;5097566;28;20067;-79
2024/02/06 02:41:19;;;;;;;0.10;0.10;;;;;;;12.49;66.19;101324.81;5096014;28;21318;-79
2024/02/06 02:43:45;;;;;;;0.10;0.10;;;;;;;12.46;66.74;101319.56;5097043;28;20040;-80
2024/02/06 02:46:11;;;;;;;0.10;0.10;;;;;;;12.50;66.34;101325.69;5105605;28;20041;-80
2024/02/06 02:48:37;;;;;;;0.50;0.50;;;;;;;12.29;67.10;101314.59;5100889;28;20024;-80
2024/02/06 02:51:04;;;;;;;4.40;1.45;;;;;;;12.35;66.65;101318.91;5096783;28;20024;-80
2024/02/06 02:53:30;;;;;;;0.10;0.10;;;;;;;12.41;66.33;101311.69;5096541;28;20032;-80
2024/02/06 02:55:57;;;;;;;1.98;1.85;;;;;;;12.41;66.81;101306.38;5100216;28;20054;-80
2024/02/06 02:58:23;;;;;;;0.10;0.10;;;;;;;12.50;65.74;101318.63;5100073;28;20077;-79
2024/02/06 03:00:49;;;;;;;0.10;0.10;;;;;;;12.41;66.25;101316.13;5093305;28;20056;-78
2024/02/06 03:03:16;;;;;;;0.30;0.30;;;;;;;12.35;66.80;101313.59;5083845;28;20031;-78
2024/02/06 03:05:42;;;;;;;0.95;0.95;;;;;;;12.47;66.39;101308.03;5083788;28;20039;-78
2024/02/06 03:08:09;;;;;;;3.95;1.35;;;;;;;12.38;66.36;101301.13;5089792;28;20032;-78
2024/02/06 03:10:35;;;;;;;3.13;2.83;;;;;;;12.50;66.00;101292.03;5093961;28;20138;-78
2024/02/06 03:13:01;;;;;;;0.10;0.10;;;;;;;12.48;66.72;101295.63;5092143;28;20399;-79
2024/02/06 03:15:27;;;;;;;0.17;0.17;;;;;;;12.30;66.87;101300.41;5085305;28;20016;-77
2024/02/06 03:17:55;;;;;;;0.10;0.10;;;;;;;12.56;66.29;101291.91;5086847;28;20035;-78
2024/02/06 03:20:21;;;;;;;0.10;0.10;;;;;;;12.37;66.43;101274.59;5090543;28;20028;-77
2024/02/06 03:22:48;;;;;;;0.13;0.13;;;;;;;12.42;66.45;101293.97;5092076;28;20039;-78
2024/02/06 03:25:15;;;;;;;0.10;0.10;;;;;;;12.44;66.80;101270.91;5097347;28;20123;-77
2024/02/06 03:27:43;;;;;;;0.10;0.10;;;;;;;12.53;66.70;101268.03;5089061;28;20060;-78
2024/02/06 03:30:10;;;;;;;1.55;1.27;;;;;;;12.55;66.25;101257.38;5089210;28;20106;-78
2024/02/06 03:32:36;;;;;;;0.03;0.03;;;;;;;12.46;66.73;101269.97;5093269;28;20043;-79
2024/02/06 03:35:02;;;;;;;0.10;0.10;;;;;;;12.53;66.77;101270.69;5092262;28;20479;-79
2024/02/06 03:37:29;;;;;;;14.13;0.77;;;;;;;12.37;67.24;101263.94;5093301;28;20502;-78
2024/02/06 03:39:55;;;;;;;0.25;0.25;;;;;;;12.21;67.82;101280.22;5094679;28;20040;-78
2024/02/06 03:42:21;;;;;;;0.10;0.10;;;;;;;12.42;67.53;101275.34;5096896;28;20024;-81
2024/02/06 03:44:48;;;;;;;0.10;0.10;;;;;;;12.43;67.57;101269.13;5097196;28;20043;-79
2024/02/06 03:47:14;;;;;;;0.10;0.10;;;;;;;12.43;66.79;101274.47;5095218;28;20047;-82
2024/02/06 03:49:40;;;;;;;9.02;2.95;;;;;;;12.35;67.66;101260.44;5084102;28;20423;-82
2024/02/06 03:52:06;;;;;;;0.20;0.20;;;;;;;12.37;67.92;101285.22;5090719;28;20031;-82
2024/02/06 03:54:32;;;;;;;1.05;1.05;;;;;;;12.36;68.02;101263.09;5096481;28;20052;-82
2024/02/06 03:56:59;;;;;;;4.28;3.22;;;;;;;12.34;68.16;101270.22;5099224;28;20035;-80
2024/02/06 03:59:25;;;;;;;0.20;0.20;;;;;;;12.43;67.73;101269.13;5097827;28;20044;-79
2024/02/06 04:01:51;;;;;;;2.60;1.90;;;;;;;12.44;68.02;101255.81;5095036;28;20028;-81
2024/02/06 04:04:18;;;;;;;0.20;0.20;;;;;;;12.49;67.84;101260.19;5091889;28;20403;-81
2024/02/06 04:06:44;;;;;;;0.10;0.10;;;;;;;12.54;67.43;101259.16;5090869;28;20024;-81
2024/02/06 04:09:10;;;;;;;0.85;0.85;;;;;;;12.49;67.33;101279.66;5090824;28;20029;-81
2024/02/06 04:11:36;;;;;;;0.30;0.30;;;;;;;12.51;67.71;101255.69;5088462;28;20081;-78
2024/02/06 04:14:03;;;;;;;6.45;1.85;;;;;;;12.53;67.24;101270.69;5096997;28;20043;-79
2024/02/06 04:16:29;;;;;;;0.20;0.20;;;;;;;12.54;67.51;101243.22;5090423;28;20513;-79
2024/02/06 04:18:56;;;;;;;0.20;0.20;;;;;;;12.53;67.83;101249.44;5089555;28;20028;-79
2024/02/06 04:21:22;;;;;;;0.10;0.10;;;;;;;12.55;67.67;101254.72;5090242;28;20105;-79
2024/02/06 04:23:48;;;;;;;0.28;0.28;;;;;;;12.58;67.55;101236.91;5091179;28;20043;-78
2024/02/06 04:26:14;;;;;;;0.10;0.10;;;;;;;12.55;67.74;101231.66;5090821;28;20036;-77
2024/02/06 04:28:40;;;;;;;0.55;0.55;;;;;;;12.68;67.51;101224.28;5095935;28;20491;-77
2024/02/06 04:31:06;;;;;;;0.10;0.10;;;;;;;12.65;67.50;101232.34;5097548;28;20510;-78
2024/02/06 04:33:35;;;;;;;0.13;0.13;;;;;;;12.58;67.67;101226.28;5096941;28;20035;-78
2024/02/06 04:36:01;;;;;;;0.10;0.10;;;;;;;12.61;67.63;101226.22;5097186;28;20062;-78
2024/02/06 04:38:27;;;;;;;0.38;0.38;;;;;;;12.65;67.61;101252.72;5099886;28;20098;-79
2024/02/06 04:40:53;;;;;;;0.30;0.30;;;;;;;12.61;67.98;101223.56;5101144;28;20535;-79
2024/02/06 04:43:22;;;;;;;0.15;0.15;;;;;;;12.68;67.58;101223.44;5092812;28;20028;-79
2024/02/06 04:45:48;;;;;;;0.10;0.10;;;;;;;12.51;67.54;101231.75;5094190;28;20127;-79
2024/02/06 04:48:14;;;;;;;0.10;0.10;;;;;;;12.55;68.02;101215.72;5099493;28;20120;-79
2024/02/06 04:50:40;;;;;;;2.40;2.20;;;;;;;12.61;67.86;101231.53;5090901;28;20028;-79
2024/02/06 04:53:06;;;;;;;0.10;0.10;;;;;;;12.73;67.40;101213.56;5092960;28;20036;-79
2024/02/06 04:55:33;;;;;;;0.10;0.10;;;;;;;12.77;67.16;101209.91;5098636;28;20028;-79
2024/02/06 04:58:00;;;;;;;0.20;0.20;;;;;;;12.74;67.12;101210.84;5098904;28;20028;-79
2024/02/06 05:00:27;;;;;;;0.10;0.10;;;;;;;12.84;66.59;101211.53;5098775;28;20024;-78
2024/02/06 05:02:54;;;;;;;0.10;0.10;;;;;;;12.88;66.60;101202.53;5087956;28;20524;-79
2024/02/06 05:05:20;;;;;;;3.53;1.08;;;;;;;12.73;66.94;101209.09;5092664;28;20028;-79
2024/02/06 05:07:46;;;;;;;0.10;0.10;;;;;;;12.75;66.61;101206.44;5093669;28;20024;-79
2024/02/06 05:10:12;;;;;;;0.45;0.45;;;;;;;12.69;66.94;101206.56;5093528;28;20032;-79
2024/02/06 05:12:38;;;;;;;0.10;0.10;;;;;;;12.73;66.80;101187.84;5090242;28;20028;-79
2024/02/06 05:15:05;;;;;;;4.03;3.25;;;;;;;12.65;67.23;101196.91;5092297;28;20116;-79
2024/02/06 05:17:31;;;;;;;1.83;1.75;;;;;;;12.82;66.49;101186.75;5094310;28;20105;-79
2024/02/06 05:19:58;;;;;;;0.10;0.10;;;;;;;12.77;67.17;101201.94;5096370;28;20558;-79
2024/02/06 05:22:24;;;;;;;0.10;0.10;;;;;;;12.67;67.46;101174.69;5102812;28;20038;-79
2024/02/06 05:24:50;;;;;;;3.92;2.15;;;;;;;12.62;67.49;101180.13;5101699;28;20028;-79
2024/02/06 05:27:16;;;;;;;0.85;0.85;;;;;;;12.75;67.26;101179.84;5100036;28;20043;-79
2024/02/06 05:29:42;;;;;;;0.10;0.10;;;;;;;12.71;67.24;101183.47;5094787;28;20039;-79
2024/02/06 05:32:09;;;;;;;0.40;0.40;;;;;;;12.76;66.80;101185.13;5094657;28;20024;-79
2024/02/06 05:34:35;;;;;;;1.95;1.85;;;;;;;12.74;67.21;101184.25;5089906;28;20032;-79
2024/02/06 05:37:01;;;;;;;1.48;1.38;;;;;;;12.65;67.65;101183.59;5094211;28;20039;-79
2024/02/06 05:39:27;;;;;;;0.10;0.10;;;;;;;12.61;67.46;101173.06;5102313;28;20032;-79
2024/02/06 05:41:54;;;;;;;5.72;3.13;;;;;;;12.55;67.29;101167.88;5100817;28;20024;-79
2024/02/06 05:44:20;;;;;;;0.32;0.32;;;;;;;12.81;67.03;101169.06;5099594;28;20024;-79
2024/02/06 05:46:46;;;;;;;6.30;2.33;;;;;;;12.58;67.18;101167.78;5099216;28;20088;-79
2024/02/06 05:49:12;;;;;;;0.30;0.30;;;;;;;12.75;67.17;101179.84;5098657;28;20125;-78
2024/02/06 05:51:38;;;;;;;0.10;0.10;;;;;;;12.68;67.28;101147.19;5096723;28;20637;-78
2024/02/06 05:54:05;;;;;;;3.13;2.47;;;;;;;12.69;67.41;101148.94;5098120;28;20119;-78
2024/02/06 05:56:31;;;;;;;61.03;2.28;;;;;;;12.79;67.23;101173.53;5093089;28;20043;-79
2024/02/06 05:58:57;;;;;;;0.17;0.17;;;;;;;12.71;67.65;101151.56;5095962;28;20095;-79
2024/02/06 06:01:23;;;;;;;1.25;1.25;;;;;;;12.62;67.61;101153.53;5092274;28;20035;-79
2024/02/06 06:03:50;;;;;;;0.20;0.20;;;;;;;12.71;66.67;101152.44;5086387;28;20032;-78
2024/02/06 06:06:16;;;;;;;0.20;0.20;;;;;;;12.70;66.81;101155.16;5096507;28;20086;-78
2024/02/06 06:08:42;;;;;;;0.10;0.10;;;;;;;12.86;66.72;101156.53;5097122;28;20034;-79
2024/02/06 06:11:08;;;;;;;2.15;1.85;;;;;;;12.82;66.51;101152.16;5091327;28;20096;-78
2024/02/06 06:13:34;;;;;;;0.10;0.10;;;;;;;12.77;66.52;101140.78;5093934;28;20040;-77
2024/02/06 06:16:01;;;;;;;0.75;0.75;;;;;;;12.85;66.59;101135.28;5090226;28;20024;-77
2024/02/06 06:18:27;;;;;;;9.95;4.28;;;;;;;12.71;66.86;101130.28;5092258;28;20046;-78
2024/02/06 06:20:53;;;;;;;0.20;0.20;;;;;;;12.86;66.65;101140.56;5093943;28;20120;-78
2024/02/06 06:23:19;;;;;;;0.75;0.75;;;;;;;12.74;67.04;101115.13;5093431;28;20419;-79
2024/02/06 06:25:45;;;;;;;15.98;2.75;;;;;;;12.80;67.24;101124.75;5090670;28;20028;-77
2024/02/06 06:28:11;;;;;;;1.77;1.17;;;;;;;12.82;67.18;101117.59;5088733;28;20060;-80
2024/02/06 06:30:38;;;;;;;1.30;1.30;;;;;;;12.78;67.00;101123.91;5093211;28;20098;-78
2024/02/06 06:33:04;;;;;;;0.70;0.65;;;;;;;12.69;67.67;101114.38;5090911;28;20531;-77
2024/02/06 06:35:30;;;;;;;0.10;0.10;;;;;;;12.85;67.25;101116.69;5097657;28;20065;-78
2024/02/06 06:37:56;;;;;;;0.10;0.10;;;;;;;12.73;67.59;101105.41;5092915;28;20111;-79
2024/02/06 06:40:22;;;;;;;0.17;0.17;;;;;;;12.79;67.50;101101.75;5097463;28;20065;-78
2024/02/06 06:42:49;;;;;;;0.40;0.40;;;;;;;12.76;67.37;101101.78;5087018;28;20032;-78
2024/02/06 06:45:15;;;;;;;7.75;2.15;;;;;;;12.79;67.35;101113.22;5087963;28;20036;-78
2024/02/06 06:47:41;;;;;;;0.13;0.13;;;;;;;12.79;67.72;101109.72;5092399;28;20039;-77
2024/02/06 06:50:08;;;;;;;0.10;0.10;;;;;;;12.59;67.79;101110.22;5092422;28;20024;-78
2024/02/06 06:52:34;;;;;;;0.20;0.20;;;;;;;12.66;67.94;101118.91;5092383;28;20044;-79
2024/02/06 06:55:00;;;;;;;0.75;0.75;;;;;;;12.74;67.43;101103.66;5086910;28;20453;-78
2024/02/06 06:57:27;;;;;;;0.85;0.85;;;;;;;12.77;67.95;101103.56;5088216;28;20043;-78
2024/02/06 06:59:53;;;;;;;1.08;1.08;;;;;;;12.78;67.76;101105.31;5088081;28;20031;-79
2024/02/06 07:02:19;;;;;;;0.75;0.75;;;;;;;12.73;68.31;101107.22;5084746;28;20076;-77
2024/02/06 07:04:45;;;;;;;0.30;0.30;;;;;;;12.74;67.73;101096.53;5086871;28;20376;-78
2024/02/06 07:07:11;;;;;;;0.10;0.10;;;;;;;12.73;68.02;101109.88;5091228;28;20035;-78
2024/02/06 07:09:37;;;;;;;2.92;1.50;;;;;;;12.65;68.27;101126.00;5095292;28;20020;-80
2024/02/06 07:12:04;;;;;;;0.10;0.10;;;;;;;12.81;67.69;101105.25;5095025;28;20084;-79
2024/02/06 07:14:30;;;;;;;0.10;0.10;;;;;;;12.68;67.92;101114.44;5091018;28;20074;-80
2024/02/06 07:16:56;;;;;;;0.30;0.28;;;;;;;12.72;67.64;101102.78;5089062;28;20059;-79
2024/02/06 07:19:23;;;;;;;0.10;0.10;;;;;;;12.65;67.88;101110.06;5094326;28;20089;-79
2024/02/06 07:21:56;;;;;;;0.85;0.85;;;;;;;12.74;67.88;101103.66;5094817;28;20473;-79
2024/02/06 07:24:24;;;;;;;0.35;0.35;;;;;;;12.75;67.52;101110.72;5095166;28;20032;-79
2024/02/06 07:26:51;;;;;;;0.38;0.38;;;;;;;12.77;67.70;101108.88;5095398;28;20036;-79
2024/02/06 07:29:18;;;;;;;0.45;0.43;;;;;;;12.74;67.80;101108.97;5095184;28;20453;-79
2024/02/06 07:31:44;;;;;;;0.10;0.10;;;;;;;12.87;67.24;101109.50;5096177;28;20028;-79
2024/02/06 07:34:14;;;;;;;1.15;1.15;;;;;;;12.81;67.72;101101.69;5095893;28;20032;-80
2024/02/06 07:36:40;;;;;;;0.35;0.35;;;;;;;12.93;66.65;101088.09;5094935;28;20023;-80
2024/02/06 07:39:07;;;;;;;0.35;0.35;;;;;;;12.94;67.32;101090.69;5096295;28;20024;-80
2024/02/06 07:41:33;;;;;;;0.10;0.10;;;;;;;12.84;67.32;101099.84;5095579;28;20039;-81
2024/02/06 07:43:59;;;;;;;0.50;0.50;;;;;;;12.84;66.93;101088.34;5094141;28;20024;-80
2024/02/06 07:46:25;;;;;;;2.20;2.10;;;;;;;12.64;67.48;101091.50;5096082;28;20089;-80
2024/02/06 07:48:54;;;;;;;1.45;0.50;;;;;;;12.69;67.90;101106.41;5096490;28;20097;-81
2024/02/06 07:51:20;;;;;;;0.52;0.52;;;;;;;12.74;67.64;101095.66;5095711;28;20028;-80
2024/02/06 07:53:46;;;;;;;27.52;2.03;;;;;;;12.80;67.65;101119.44;5095827;28;20039;-80
2024/02/06 07:56:13;;;;;;;0.32;0.32;;;;;;;12.71;68.31;101103.69;5095216;28;20028;-80
2024/02/06 07:58:39;;;;;;;0.10;0.10;;;;;;;12.92;67.83;101089.88;5095115;28;20028;-80
2024/02/06 08:01:06;;;;;;;1.48;1.48;;;;;;;12.76;68.19;101091.16;5092820;28;20024;-78
2024/02/06 08:03:32;;;;;;;0.10;0.10;;;;;;;12.81;68.17;101088.41;5088670;28;20028;-79
2024/02/06 08:05:58;;;;;;;0.20;0.20;;;;;;;12.76;67.85;101081.41;5090222;28;20032;-79
2024/02/06 08:08:25;;;;;;;0.20;0.20;;;;;;;12.80;67.79;101082.22;5098858;28;20133;-80
2024/02/06 08:10:51;;;;;;;0.10;0.10;;;;;;;12.78;68.13;101074.28;5097840;28;20028;-78
2024/02/06 08:13:17;;;;;;;2.28;1.35;;;;;;;12.88;67.06;101066.91;5097960;28;20028;-78
2024/02/06 08:15:45;;;;;;;0.15;0.15;;;;;;;12.91;67.53;101069.50;5095036;28;20028;-78
2024/02/06 08:18:11;;;;;;;0.10;0.10;;;;;;;12.99;66.91;101053.34;5091703;28;20151;-82
2024/02/06 08:20:37;;;;;;;0.85;0.43;;;;;;;12.99;67.12;101065.78;5097709;28;20483;-79
2024/02/06 08:23:04;;;;;;;0.38;0.38;;;;;;;12.94;66.71;101063.25;5094487;28;20028;-79
2024/02/06 08:25:31;;;;;;;0.20;0.20;;;;;;;13.01;66.76;101063.94;5097056;28;20032;-78
2024/02/06 08:27:58;;;;;;;0.65;0.65;;;;;;;13.10;66.30;101055.72;5097707;28;20028;-78
2024/02/06 08:30:24;;;;;;;0.82;0.82;;;;;;;13.07;66.83;101059.34;5097260;28;20465;-77
2024/02/06 08:32:50;;;;;;;0.10;0.10;;;;;;;13.11;66.31;101061.00;5095748;28;20032;-78
2024/02/06 08:35:16;;;;;;;0.32;0.32;;;;;;;13.00;66.63;101044.47;5096013;28;20040;-79
2024/02/06 08:37:42;;;;;;;0.10;0.10;;;;;;;13.10;66.19;101051.28;5095639;28;20562;-78
2024/02/06 08:40:10;;;;;;;0.47;0.47;;;;;;;13.11;66.29;101068.13;5096419;28;20123;-78
2024/02/06 08:42:37;;;;;;;0.35;0.35;;;;;;;13.08;66.39;101044.25;5096151;28;20028;-78
2024/02/06 08:45:04;;;;;;;0.10;0.10;;;;;;;13.21;66.10;101050.13;5096263;28;20032;-78
2024/02/06 08:47:30;;;;;;;0.20;0.20;;;;;;;13.18;66.21;101035.09;5096428;28;20024;-78
2024/02/06 08:49:56;;;;;;;0.20;0.20;;;;;;;13.18;66.29;101026.25;5096719;28;20028;-80
2024/02/06 08:52:23;;;;;;;0.10;0.10;;;;;;;13.30;65.94;101046.34;5095898;28;20032;-80
2024/02/06 08:54:49;;;;;;;0.28;0.28;;;;;;;13.16;66.24;101047.59;5096693;28;20080;-82
2024/02/06 08:57:16;;;;;;;0.10;0.10;;;;;;;13.25;66.26;101030.50;5096972;28;20422;-80
2024/02/06 08:59:42;;;;;;;2.63;1.75;;;;;;;13.25;66.25;101034.00;5096410;28;20030;-81
2024/02/06 09:02:08;;;;;;;0.10;0.10;;;;;;;13.17;66.52;101046.69;5090759;28;20107;-78
2024/02/06 09:04:34;;;;;;;0.98;0.60;;;;;;;13.19;66.92;101047.47;5095390;28;20115;-79
2024/02/06 09:07:01;;;;;;;0.10;0.10;;;;;;;13.11;67.13;101033.53;5095695;28;20085;-78
2024/02/06 09:09:27;;;;;;;0.77;0.77;;;;;;;13.27;66.62;101033.97;5091188;28;20024;-77
2024/02/06 09:11:54;;;;;;;0.10;0.10;;;;;;;13.30;66.75;101027.72;5095858;28;20032;-77
2024/02/06 09:14:22;;;;;;;0.32;0.32;;;;;;;13.31;66.79;101034.75;5094194;28;20115;-78
2024/02/06 09:16:48;;;;;;;0.10;0.10;;;;;;;13.26;66.62;101011.81;5094957;28;20041;-78
2024/02/06 09:19:14;;;;;;;1.27;1.23;;;;;;;13.49;65.94;101004.97;5094485;28;20114;-78
2024/02/06 09:21:40;;;;;;;0.20;0.20;;;;;;;13.45;66.05;101006.00;5095620;28;20023;-79
2024/02/06 09:24:07;;;;;;;0.10;0.10;;;;;;;13.36;66.38;101007.09;5096113;28;20074;-79
2024/02/06 09:26:33;;;;;;;2.17;1.75;;;;;;;13.48;66.18;101008.56;5097488;28;20036;-80
2024/02/06 09:28:59;;;;;;;0.10;0.10;;;;;;;13.59;65.50;100993.16;5098844;28;20081;-79
2024/02/06 09:31:25;;;;;;;14.90;2.45;;;;;;;13.68;65.96;100985.78;5092531;28;20130;-80
2024/02/06 09:33:52;;;;;;;0.20;0.20;;;;;;;13.68;65.74;100991.13;5098260;28;20454;-79
2024/02/06 09:36:18;;;;;;;1.63;1.08;;;;;;;13.58;66.42;100972.78;5100010;28;20020;-82
2024/02/06 09:38:44;;;;;;;0.35;0.35;;;;;;;13.53;66.36;100972.03;5099185;28;20028;-79
2024/02/06 09:41:10;;;;;;;0.10;0.10;;;;;;;13.55;66.30;100966.66;5098904;28;20582;-79
2024/02/06 09:43:36;;;;;;;1.00;1.00;;;;;;;13.49;66.50;100970.38;5099829;28;20402;-81
2024/02/06 09:46:04;;;;;;;8.50;1.98;;;;;;;13.53;66.18;100961.41;5098756;28;20029;-81
2024/02/06 09:48:30;;;;;;;0.10;0.10;;;;;;;13.67;65.81;100963.63;5097621;28;20388;-82
2024/02/06 09:50:56;;;;;;;0.20;0.20;;;;;;;13.61;65.72;100953.16;5095753;28;20032;-81
2024/02/06 09:53:29;;;;;;;0.65;0.65;;;;;;;13.83;65.29;100964.03;5100093;28;20119;-81
2024/02/06 09:55:59;;;;;;;0.52;0.52;;;;;;;13.57;65.65;100955.06;5100925;28;20051;-82
2024/02/06 09:58:26;;;;;;;0.15;0.15;;;;;;;13.76;65.11;100957.16;5099327;28;20040;-81
2024/02/06 10:00:55;;;;;;;1.48;1.45;;;;;;;13.84;64.99;100981.72;5099689;28;20028;-79
2024/02/06 10:03:39;;;;;;;0.77;0.77;;;;;;;13.86;64.72;100921.28;5098077;28;20032;-78
2024/02/06 10:06:09;;;;;;;2.08;1.20;;;;;;;13.80;64.82;100948.13;5092709;28;20024;-79
2024/02/06 10:08:36;;;;;;;0.17;0.17;;;;;;;13.87;64.87;100943.50;5098915;28;20024;-79
2024/02/06 10:11:05;;;;;;;1.40;1.30;;;;;;;13.97;64.09;100922.72;5096543;28;20407;-81
2024/02/06 10:13:32;;;;;;;1.25;1.15;;;;;;;13.84;64.11;100947.09;5097328;28;20032;-81
2024/02/06 10:15:58;;;;;;;0.10;0.10;;;;;;;13.79;64.35;100961.50;5097988;28;20515;-79
2024/02/06 10:18:24;;;;;;;0.52;0.52;;;;;;;13.99;63.88;100943.06;5096791;28;20425;-79
2024/02/06 10:20:54;;;;;;;0.10;0.10;;;;;;;14.05;63.83;100950.84;5094836;28;20032;-79
2024/02/06 10:23:20;;;;;;;0.10;0.10;;;;;;;14.07;63.68;100975.66;5094206;28;20115;-79
2024/02/06 10:25:50;;;;;;;0.30;0.30;;;;;;;13.93;64.15;100948.59;5094382;28;20032;-79
2024/02/06 10:28:21;;;;;;;3.25;2.15;;;;;;;14.25;63.26;100933.34;5093078;28;20023;-79
2024/02/06 10:30:48;;;;;;;0.10;0.10;;;;;;;14.21;63.28;100937.03;5095448;28;20035;-78
2024/02/06 10:33:15;;;;;;;0.13;0.13;;;;;;;14.16;63.54;100934.53;5095181;28;20028;-78
2024/02/06 10:35:42;;;;;;;0.10;0.10;;;;;;;14.19;63.46;100929.13;5096533;28;20024;-78
2024/02/06 10:38:16;;;;;;;0.10;0.10;;;;;;;14.21;63.20;100940.56;5096009;28;20024;-78
2024/02/06 10:40:45;;;;;;;0.40;0.40;;;;;;;14.16;63.25;100926.53;5089142;28;20031;-79
2024/02/06 10:43:12;;;;;;;0.10;0.10;;;;;;;14.29;63.07;100918.13;5095192;28;20623;-78
2024/02/06 10:45:38;;;;;;;0.20;0.20;;;;;;;14.14;63.42;100916.84;5096594;28;20033;-78
2024/02/06 10:48:05;;;;;;;0.10;0.10;;;;;;;14.17;63.22;100917.63;5095455;28;20031;-78
2024/02/06 10:50:33;;;;;;;0.10;0.10;;;;;;;14.23;63.29;100921.84;5096505;28;20050;-79
2024/02/06 10:53:02;;;;;;;0.75;0.75;;;;;;;14.34;62.87;100926.81;5097420;28;20032;-79
2024/02/06 10:55:28;;;;;;;0.10;0.10;;;;;;;14.30;62.62;100907.41;5097362;28;20031;-79
2024/02/06 10:58:05;;;;;;;0.30;0.30;;;;;;;14.39;62.60;100930.19;5095048;28;20101;-79
2024/02/06 11:00:34;;;;;;;0.30;0.30;;;;;;;14.42;62.68;100935.44;5094554;28;20406;-77
2024/02/06 11:03:07;;;;;;;0.10;0.10;;;;;;;14.40;63.13;100963.94;5093843;28;20035;-78
2024/02/06 11:08:21;;;;;;;13.05;1.65;;;;;;;14.36;63.13;100941.84;5091400;27;20397;-79
2024/02/06 11:10:53;;;;;;;3.92;2.05;;;;;;;14.26;62.89;100940.41;5076746;28;20020;-79
2024/02/06 11:13:26;;;;;;;0.10;0.10;;;;;;;14.46;62.30;100929.06;5075387;28;20107;-79
2024/02/06 11:15:55;;;;;;;0.10;0.10;;;;;;;14.20;62.79;100946.81;5071513;28;20074;-80
2024/02/06 11:18:28;;;;;;;0.20;0.20;;;;;;;14.13;63.00;100961.28;5070149;28;20037;-78
2024/02/06 11:20:57;;;;;;;0.10;0.10;;;;;;;14.27;62.79;100946.59;5070632;28;20020;-80
2024/02/06 11:23:24;;;;;;;1.65;1.55;;;;;;;14.31;62.43;100934.94;5070093;28;20036;-79